Tiempo atmosférico en la estación meteorológica de Abla, Almería (885 m.)



Fecha
DESCASC
Temp. máxima en grados centígrados (hora)
DESCASC
Temp. mínima en grados centígrados (hora)
DESCASC
Temp. media en grados centígrados
DESCASC
Racha de viento máxima en m/sg (hora)
DESCASC
Velocidad máxima media en intervalos de 10 minutos(hora)
DESCASC
Precipitaciones diarias en mm
DESCASC
Precipitaciones de 00:00 a 06:00 en mm
DESCASC
Precipitaciones de 06:00 a 12:00 en mm
DESCASC
Precipitaciones de 12:00 a 18:00 en mm
DESCASC
Precipitaciones de 18:00 a 24:00 en mm
DESCASC
23-05-2018 25.5 (16:10) 12.5 (07:00) 19 8.89 (17:10) 4.17 (16:40) 0 0 0 0 0
22-05-2018 24 (14:40) 11.4 (04:20) 17.7 8.61 (16:00) 4.17 (18:40) 0 0 0 0 0
21-05-2018 -- (--) -- (--) -- -- (--) -- (--) -- 0 0 -- 0
20-05-2018 21.2 (14:00) 10.2 (00:00) 15.7 9.72 (14:10) 4.72 (16:20) 0 0 0 0 0
19-05-2018 21.5 (14:30) 9.6 (00:00) 15.6 9.44 (17:10) 4.44 (16:50) 0 0 0 0 0
18-05-2018 21.5 (14:20) 8.6 (00:00) 15.1 9.44 (14:00) 4.17 (12:50) 0 0 0 0 0
17-05-2018 20.5 (17:50) 9 (00:00) 14.8 8.33 (16:30) 3.61 (13:00) 0 0 0 0 0
16-05-2018 21.9 (14:30) 10.2 (00:00) 16 8.89 (11:30) 4.44 (11:10) 0 0 0 0 0
15-05-2018 22.4 (14:20) 9.5 (00:00) 15.9 9.72 (19:10) 4.72 (17:20) 0 0 0 0 0
14-05-2018 23 (14:00) 9.7 (00:00) 16.3 10 (17:00) 4.72 (16:40) 0 0 0 0 0
13-05-2018 21.8 (16:00) 9.2 (00:00) 15.5 7.22 (01:10) 3.89 (01:10) 0 0 0 0 0
12-05-2018 25.1 (18:10) 12.8 (00:00) 19 7.78 (13:30) 3.89 (19:10) 0 0 0 0 0
11-05-2018 22.4 (15:40) 11.4 (06:50) 16.9 8.61 (15:30) 4.44 (15:10) 0 0 0 0 0
10-05-2018 23.5 (13:30) 13.5 (00:00) 18.5 11.67 (15:40) 5 (15:30) 0 0 0 0 0
09-05-2018 23.4 (17:30) 13 (00:00) 18.2 7.5 (17:10) 3.61 (17:20) 0 0 0 0 0
08-05-2018 25.4 (15:40) 11.2 (00:00) 18.3 9.17 (16:10) 4.72 (16:40) 0 0 0 0 0
07-05-2018 23.3 (15:30) 9.9 (00:00) 16.6 8.61 (18:30) 4.17 (18:40) 0 0 0 0 0
06-05-2018 21.3 (14:40) 9.4 (00:00) 15.3 10.28 (15:50) 4.72 (15:40) 0 0 0 0 0
05-05-2018 20.9 (15:30) 10.3 (00:00) 15.6 7.78 (16:50) 3.89 (17:40) 0 0 0 0 0
04-05-2018 19.8 (16:00) 11.5 (00:00) 15.6 10.28 (16:40) 5 (16:40) 0 0 0 0 0
03-05-2018 21.3 (13:40) 8.4 (00:00) 14.8 5.83 (23:30) 2.5 (07:20) 0 0 0 0 0
02-05-2018 20.3 (16:10) 4.2 (00:00) 12.2 8.61 (17:10) 3.89 (16:50) 0 0 0 0 0
01-05-2018 15.1 (14:10) 5.8 (17:20) 10.5 8.61 (14:50) 4.17 (16:00) 0 0 0 0 0
30-04-2018 17.6 (15:30) 5.8 (00:00) 11.7 7.5 (20:00) 3.61 (16:40) 0 0 0 0 0
29-04-2018 15.5 (18:10) 7.1 (00:00) 11.3 10.83 (16:10) 4.72 (10:00) 0 0 0 0 0
28-04-2018 24.6 (14:20) 10.8 (00:00) 17.7 15.56 (15:40) 5.83 (15:50) 0 0 0 0 0
27-04-2018 26 (13:40) 11.1 (00:00) 18.6 10 (15:30) 5.28 (14:00) 0 0 0 0 0
26-04-2018 18.3 (17:40) 12.1 (00:00) 15.2 6.39 (12:20) 2.5 (18:50) 0 0 0 0 0
25-04-2018 17.7 (00:20) 12.5 (00:00) 15.1 8.89 (00:20) 4.44 (00:40) 0 0 0 0 0
24-04-2018 24.4 (15:10) 12.2 (00:00) 18.3 11.67 (00:10) 5.28 (15:20) 0 0 0 0 0

Gráficas

Temp. máximas Temp. mínimas Temp. medias Precipitaciones Rachas de viento máximas Velocidades máximas media en intervalos de 10 minutos

Datos horarios

Fecha y hora oficial Temperatura (ºC) Velocidad del viento (km/h) Dirección del viento Racha (km/h) Dirección de racha Precipitación (mm) Presión (hPa) Tendencia (hPa) Humedad (%)
2018-05-23 23:00:00 17.9 3 Norte 10 Norte 0 -- -- 38
2018-05-23 22:00:00 18.3 4 Nordeste 18 Este 0 -- -- 38
2018-05-23 21:00:00 20 9 Este 23 Este 0 -- -- 35
2018-05-23 20:00:00 21.8 9 Nordeste 21 Este 0 -- -- 34
2018-05-23 19:00:00 23.2 9 Nordeste 25 Este 0 -- -- 33
2018-05-23 18:00:00 23.8 12 Nordeste 32 Este 0 -- -- 32
2018-05-23 17:00:00 24.3 14 Este 28 Este 0 -- -- 32
2018-05-23 16:00:00 25 9 Nordeste 23 Este 0 -- -- 32
2018-05-23 15:00:00 23.5 7 Nordeste 16 Este 0 -- -- 34
2018-05-23 14:00:00 21.9 7 Nordeste 18 Nordeste 0 -- -- 36
2018-05-23 13:00:00 21.2 9 Nordeste 17 Este 0 -- -- 37
2018-05-23 12:00:00 19.2 10 Nordeste 22 Nordeste 0 -- -- 42
2018-05-23 11:00:00 20.8 8 Nordeste 16 Este 0 -- -- 42
2018-05-23 10:00:00 18.8 3 Nordeste 8 Nordeste 0 -- -- 46
2018-05-23 09:00:00 16.7 3 Norte 8 Oeste 0 -- -- 60
2018-05-23 08:00:00 13 5 Oeste 11 Noroeste 0 -- -- 75
2018-05-23 07:00:00 12.6 0 Calma 16 Nordeste 0 -- -- 82
2018-05-23 06:00:00 13.5 3 Norte 10 Norte 0 -- -- 78
2018-05-23 05:00:00 12.8 0 Calma 8 Oeste 0 -- -- 80
2018-05-23 04:00:00 14.3 3 Noroeste 9 Norte 0 -- -- 70
2018-05-23 03:00:00 13.8 0 Calma 9 Oeste 0 -- -- 78
2018-05-23 02:00:00 14.8 2 Noroeste 11 Noroeste 0 -- -- 71
2018-05-23 01:00:00 15.5 3 Norte 10 Norte 0 -- -- 70
2018-05-23 00:00:00 16.1 3 Noroeste 9 Noroeste 0 -- -- 66
2018-05-22 23:00:00 16.5 0 Calma 10 Noroeste 0 -- -- 66
2018-05-22 22:00:00 17.3 4 Nordeste 10 Nordeste 0 -- -- 63
2018-05-22 21:00:00 18.8 6 Nordeste 23 Este 0 -- -- 55
2018-05-22 20:00:00 20 13 Este 29 Este 0 -- -- 47
2018-05-22 19:00:00 21.8 12 Nordeste 27 Nordeste 0 -- -- 44
2018-05-22 18:00:00 22.5 13 Este 30 Nordeste 0 -- -- 42
2018-05-22 17:00:00 22.2 12 Nordeste 29 Este 0 -- -- 41
2018-05-22 16:00:00 23.6 12 Nordeste 31 Nordeste 0 -- -- 38
2018-05-22 15:00:00 23.7 10 Nordeste 25 Este 0 -- -- 37
2018-05-22 14:00:00 22.7 6 Nordeste 24 Nordeste 0 -- -- 36
2018-05-22 13:00:00 22.4 6 Nordeste 20 Este 0 -- -- 37
2018-05-22 12:00:00 20.4 6 Nordeste 17 Este 0 -- -- 39
2018-05-22 11:00:00 19.6 3 Norte 12 Noroeste 0 -- -- 46
2018-05-22 10:00:00 17.5 5 Norte 14 Noroeste 0 -- -- 56
2018-05-22 09:00:00 15.6 4 Noroeste 10 Noroeste 0 -- -- 60
2018-05-22 08:00:00 13.9 3 Noroeste 14 Noroeste 0 -- -- 64
2018-05-22 07:00:00 11.9 5 Noroeste 13 Noroeste 0 -- -- 70
2018-05-22 06:00:00 11.7 5 Norte 13 Noroeste 0 -- -- 71
2018-05-22 05:00:00 11.9 8 Oeste 17 Noroeste 0 -- -- 69
2018-05-22 04:00:00 11.7 7 Noroeste 21 Norte 0 -- -- 68
2018-05-22 03:00:00 12.7 4 Noroeste 12 Nordeste 0 -- -- 67
2018-05-22 02:00:00 12.6 7 Noroeste 16 Noroeste 0 -- -- 76
2018-05-22 01:00:00 12.5 2 Noroeste 10 Oeste 0 -- -- 78
2018-05-22 00:00:00 13.7 0 Calma 14 Norte 0 -- -- 72
2018-05-21 23:00:00 14 4 Noroeste 16 Norte 0 -- -- 70
2018-05-21 22:00:00 14.6 4 Noroeste 14 Noroeste 0 -- -- 69
2018-05-21 21:00:00 15.9 3 Norte 10 Noroeste 0 -- -- 59
2018-05-21 20:00:00 16.8 5 Noroeste 14 Norte 0 -- -- 55
2018-05-21 19:00:00 18 7 Noroeste 18 Norte 0 -- -- 50
2018-05-21 18:00:00 19.1 6 Noroeste 17 Norte 0 -- -- 50
2018-05-21 17:00:00 17.2 3 Norte 9 Norte 0 -- -- 67
2018-05-21 16:00:00 -- -- -- -- -- -- -- -- --
2018-05-21 15:00:00 -- -- -- -- -- -- -- -- --
2018-05-21 14:00:00 15.2 6 Noroeste 25 Norte 0 -- -- 55
2018-05-21 13:00:00 18.1 2 Norte 14 Noroeste 0 -- -- 50
2018-05-21 12:00:00 16.5 7 Nordeste 19 Este 0 -- -- 58
2018-05-21 11:00:00 18.8 9 Este 19 Este 0 -- -- 47
2018-05-21 10:00:00 16.8 3 Nordeste 10 Este 0 -- -- 59
2018-05-21 09:00:00 15.5 0 Calma 8 Noroeste 0 -- -- 66
2018-05-21 08:00:00 13.4 3 Norte 9 Noroeste 0 -- -- 70
2018-05-21 07:00:00 11.4 3 Noroeste 11 Oeste 0 -- -- 80
2018-05-21 06:00:00 12 3 Noroeste 10 Noroeste 0 -- -- 79
2018-05-21 05:00:00 12 2 Noroeste 10 Norte 0 -- -- 80
2018-05-21 04:00:00 12.4 2 Norte 9 Norte 0 -- -- 78
2018-05-21 03:00:00 12.6 0 Calma 5 Noroeste 0 -- -- 78
2018-05-21 02:00:00 12.5 0 Calma 7 Nordeste 0 -- -- 85
2018-05-21 01:00:00 13.6 3 Nordeste 11 Noroeste 0 -- -- 81
2018-05-21 00:00:00 13.8 3 Noroeste 9 Noroeste 0 -- -- 82
2018-05-20 23:00:00 13.6 0 Calma 5 Noroeste 0 -- -- 86
2018-05-20 22:00:00 14.4 0 Calma 8 Nordeste 0 -- -- 84
2018-05-20 21:00:00 15.1 3 Nordeste 10 Este 0 -- -- 77
2018-05-20 20:00:00 14.9 3 Nordeste 14 Este 0 -- -- 78
2018-05-20 19:00:00 15 6 Nordeste 19 Este 0 -- -- 78
2018-05-20 18:00:00 15.1 10 Nordeste 23 Nordeste 0 -- -- 81
2018-05-20 17:00:00 16.6 9 Nordeste 35 Nordeste 0 -- -- 74
2018-05-20 16:00:00 19.9 15 Nordeste 33 Este 0 -- -- 46
2018-05-20 15:00:00 19.5 15 Nordeste 35 Este 0 -- -- 46
2018-05-20 14:00:00 20.7 14 Nordeste 32 Nordeste 0 -- -- 45
2018-05-20 13:00:00 20.6 13 Nordeste 29 Este 0 -- -- 45
2018-05-20 12:00:00 19.3 10 Nordeste 23 Este 0 -- -- 47
2018-05-20 11:00:00 17.8 11 Nordeste 25 Este 0 -- -- 50
2018-05-20 10:00:00 16.8 9 Nordeste 18 Este 0 -- -- 59
2018-05-20 09:00:00 15.7 2 Nordeste 6 Este 0 -- -- 64
2018-05-20 08:00:00 12.4 0 Calma 6 Oeste 0 -- -- 76
2018-05-20 07:00:00 10.2 0 Calma 9 Noroeste 0 -- -- 84
2018-05-20 06:00:00 11.4 5 Oeste 9 Oeste 0 -- -- 82
2018-05-20 05:00:00 12.3 3 Noroeste 9 Oeste 0 -- -- 74
2018-05-20 04:00:00 12.5 3 Noroeste 9 Norte 0 -- -- 76
2018-05-20 03:00:00 12.4 2 Noroeste 7 Norte 0 -- -- 75
2018-05-20 02:00:00 12.5 2 Noroeste 9 Noroeste 0 -- -- 78
2018-05-20 01:00:00 12.9 3 Noroeste 8 Nordeste 0 -- -- 72
2018-05-20 00:00:00 13.6 2 Noroeste 10 Noroeste 0 -- -- 71
2018-05-19 23:00:00 14.3 2 Noroeste 8 Oeste 0 -- -- 71
2018-05-19 22:00:00 14.4 4 Nordeste 16 Este 0 -- -- 74
2018-05-19 21:00:00 15.3 8 Nordeste 24 Este 0 -- -- 68
2018-05-19 20:00:00 16 13 Nordeste 29 Nordeste 0 -- -- 63
2018-05-19 19:00:00 18.1 14 Nordeste 28 Este 0 -- -- 54
2018-05-19 18:00:00 18.9 16 Este 34 Nordeste 0 -- -- 50
2018-05-19 17:00:00 19.7 15 Este 33 Este 0 -- -- 48
2018-05-19 16:00:00 21.1 12 Nordeste 28 Nordeste 0 -- -- 44
2018-05-19 15:00:00 20.2 12 Nordeste 27 Este 0 -- -- 44
2018-05-19 14:00:00 21 10 Nordeste 24 Nordeste 0 -- -- 43
2018-05-19 13:00:00 19.9 8 Nordeste 24 Nordeste 0 -- -- 44
2018-05-19 12:00:00 19 6 Nordeste 22 Este 0 -- -- 49
2018-05-19 11:00:00 17.1 8 Nordeste 17 Este 0 -- -- 53
2018-05-19 10:00:00 15.1 8 Nordeste 17 Este 0 -- -- 60
2018-05-19 09:00:00 16.2 3 Nordeste 11 Norte 0 -- -- 53
2018-05-19 08:00:00 13.4 4 Norte 14 Noroeste 0 -- -- 61
2018-05-19 07:00:00 12 4 Noroeste 13 Noroeste 0 -- -- 66
2018-05-19 06:00:00 10.1 5 Noroeste 10 Noroeste 0 -- -- 81
2018-05-19 05:00:00 10.8 0 Calma 7 Oeste 0 -- -- 75
2018-05-19 04:00:00 10.8 3 Noroeste 10 Noroeste 0 -- -- 74
2018-05-19 03:00:00 11.1 3 Norte 11 Noroeste 0 -- -- 70
2018-05-19 02:00:00 11.5 3 Noroeste 10 Noroeste 0 -- -- 68
2018-05-19 01:00:00 11.8 3 Noroeste 10 Oeste 0 -- -- 67
2018-05-19 00:00:00 12.9 2 Noroeste 8 Noroeste 0 -- -- 65
2018-05-18 23:00:00 13.5 0 Calma 7 Noroeste 0 -- -- 66
2018-05-18 22:00:00 14.1 3 Norte 7 Este 0 -- -- 60
2018-05-18 21:00:00 15.5 6 Nordeste 23 Este 0 -- -- 56
2018-05-18 20:00:00 16.4 8 Nordeste 27 Nordeste 0 -- -- 51
2018-05-18 19:00:00 17.4 11 Nordeste 32 Nordeste 0 -- -- 51
2018-05-18 18:00:00 17.5 13 Nordeste 29 Nordeste 0 -- -- 56
2018-05-18 17:00:00 16.1 10 Nordeste 22 Este 0 -- -- 61
2018-05-18 16:00:00 15.1 12 Nordeste 30 Este 0 -- -- 72
2018-05-18 15:00:00 19.2 14 Este 30 Este 0 -- -- 43
2018-05-18 14:00:00 20.2 14 Nordeste 34 Este 0 -- -- 41
2018-05-18 13:00:00 19 9 Nordeste 29 Este 0 -- -- 41
2018-05-18 12:00:00 19 12 Nordeste 28 Este 0 -- -- 43
2018-05-18 11:00:00 17.7 10 Nordeste 22 Nordeste 0 -- -- 44
2018-05-18 10:00:00 17 4 Nordeste 12 Este 0 -- -- 48
2018-05-18 09:00:00 14.5 0 Calma 5 Este 0 -- -- 58
2018-05-18 08:00:00 11.4 0 Calma 9 Oeste 0 -- -- 60
2018-05-18 07:00:00 9.8 3 Norte 10 Norte 0 -- -- 59
2018-05-18 06:00:00 9.9 0 Calma 6 Noroeste 0 -- -- 60
2018-05-18 05:00:00 9.9 0 Calma 8 Norte 0 -- -- 61
2018-05-18 04:00:00 10.4 0 Calma 6 Noroeste 0 -- -- 71
2018-05-18 03:00:00 11.3 2 Noroeste 8 Oeste 0 -- -- 79
2018-05-18 02:00:00 11.5 0 Calma 11 Noroeste 0 -- -- 68
2018-05-18 01:00:00 11.9 3 Noroeste 12 Noroeste 0 -- -- 68
2018-05-18 00:00:00 12.1 0 Calma 8 Norte 0 -- -- 77
2018-05-17 23:00:00 12.6 4 Nordeste 14 Nordeste 0 -- -- 81
2018-05-17 22:00:00 13.8 6 Nordeste 19 Este 0 -- -- 71
2018-05-17 21:00:00 15.6 10 Nordeste 21 Este 0 -- -- 56
2018-05-17 20:00:00 16.8 8 Nordeste 22 Nordeste 0 -- -- 53
2018-05-17 19:00:00 17.1 10 Nordeste 27 Nordeste 0 -- -- 54
2018-05-17 18:00:00 18.3 12 Nordeste 27 Nordeste 0 -- -- 45
2018-05-17 17:00:00 19.4 12 Nordeste 30 Nordeste 0 -- -- 41
2018-05-17 16:00:00 18.8 12 Nordeste 26 Este 0 -- -- 40
2018-05-17 15:00:00 18.3 10 Nordeste 24 Nordeste 0 -- -- 43
2018-05-17 14:00:00 18.7 5 Nordeste 26 Nordeste 0 -- -- 42
2018-05-17 13:00:00 17.3 13 Nordeste 26 Este 0 -- -- 45
2018-05-17 12:00:00 16.9 12 Nordeste 24 Este 0 -- -- 45
2018-05-17 11:00:00 16.3 8 Este 19 Este 0 -- -- 45
2018-05-17 10:00:00 16 4 Nordeste 10 Este 0 -- -- 48
2018-05-17 09:00:00 15.6 0 Calma 5 Noroeste 0 -- -- 53
2018-05-17 08:00:00 12.1 0 Calma 7 Norte 0 -- -- 59
2018-05-17 07:00:00 10.5 0 Calma 7 Noroeste 0 -- -- 59
2018-05-17 06:00:00 11 0 Calma 5 Sudoeste 0 -- -- 57
2018-05-17 05:00:00 11.5 0 Calma 7 Nordeste 0 -- -- 55
2018-05-17 04:00:00 10.6 0 Calma 7 Noroeste 0 -- -- 55
2018-05-17 03:00:00 11.8 3 Noroeste 9 Oeste 0 -- -- 50
2018-05-17 02:00:00 12.8 3 Nordeste 23 Nordeste 0 -- -- 49
2018-05-17 01:00:00 13.8 9 Norte 21 Noroeste 0 -- -- 47
2018-05-17 00:00:00 12.6 0 Calma 9 Norte 0 -- -- 50
2018-05-16 23:00:00 14.2 3 Noroeste 9 Noroeste 0 -- -- 47
2018-05-16 22:00:00 14.9 3 Nordeste 12 Este 0 -- -- 45
2018-05-16 21:00:00 17.1 7 Nordeste 19 Norte 0 -- -- 40
2018-05-16 20:00:00 18 8 Nordeste 25 Este 0 -- -- 38
2018-05-16 19:00:00 20.4 10 Nordeste 27 Este 0 -- -- 35
2018-05-16 18:00:00 21.1 11 Nordeste 31 Nordeste 0 -- -- 34
2018-05-16 17:00:00 20.6 13 Nordeste 31 Nordeste 0 -- -- 34
2018-05-16 16:00:00 21.4 11 Nordeste 31 Este 0 -- -- 34
2018-05-16 15:00:00 21.3 12 Nordeste 28 Este 0 -- -- 34
2018-05-16 14:00:00 21.4 11 Nordeste 29 Este 0 -- -- 38
2018-05-16 13:00:00 20.6 10 Nordeste 30 Este 0 -- -- 41
2018-05-16 12:00:00 18.3 13 Nordeste 32 Este 0 -- -- 45
2018-05-16 11:00:00 17.8 13 Nordeste 29 Este 0 -- -- 46
2018-05-16 10:00:00 16.9 6 Nordeste 15 Este 0 -- -- 49
2018-05-16 09:00:00 15.3 0 Calma 5 Nordeste 0 -- -- 56
2018-05-16 08:00:00 12.7 0 Calma 8 Noroeste 0 -- -- 63
2018-05-16 07:00:00 10.7 0 Calma 10 Noroeste 0 -- -- 66
2018-05-16 06:00:00 11.5 5 Noroeste 8 Noroeste 0 -- -- 64
2018-05-16 05:00:00 11.7 0 Calma 9 Noroeste 0 -- -- 63
2018-05-16 04:00:00 12.2 0 Calma 8 Oeste 0 -- -- 61
2018-05-16 03:00:00 12 4 Oeste 9 Oeste 0 -- -- 61
2018-05-16 02:00:00 12.5 2 Noroeste 10 Noroeste 0 -- -- 57
2018-05-16 01:00:00 12.8 2 Noroeste 9 Norte 0 -- -- 56
2018-05-16 00:00:00 13.3 3 Noroeste 8 Noroeste 0 -- -- 54
2018-05-15 23:00:00 13.4 3 Nordeste 11 Este 0 -- -- 52
2018-05-15 22:00:00 14.7 6 Nordeste 17 Nordeste 0 -- -- 45
2018-05-15 21:00:00 16 9 Nordeste 29 Este 0 -- -- 42
2018-05-15 20:00:00 17.3 12 Nordeste 35 Este 0 -- -- 40
2018-05-15 19:00:00 18.9 14 Este 30 Este 0 -- -- 38
2018-05-15 18:00:00 19.7 13 Nordeste 34 Este 0 -- -- 39
2018-05-15 17:00:00 19.2 15 Nordeste 32 Nordeste 0 -- -- 41
2018-05-15 16:00:00 20.9 13 Nordeste 29 Este 0 -- -- 41
2018-05-15 15:00:00 21.6 12 Nordeste 29 Este 0 -- -- 37
2018-05-15 14:00:00 20.8 10 Este 25 Nordeste 0 -- -- 34
2018-05-15 13:00:00 21.5 7 Nordeste 21 Este 0 -- -- 33
2018-05-15 12:00:00 20.1 6 Nordeste 16 Nordeste 0 -- -- 34
2018-05-15 11:00:00 18.5 8 Nordeste 19 Este 0 -- -- 36
2018-05-15 10:00:00 17.5 8 Nordeste 18 Este 0 -- -- 39
2018-05-15 09:00:00 15 2 Nordeste 7 Nordeste 0 -- -- 49
2018-05-15 08:00:00 12.6 0 Calma 11 Oeste 0 -- -- 53
2018-05-15 07:00:00 9.6 6 Noroeste 13 Oeste 0 -- -- 59
2018-05-15 06:00:00 11 6 Noroeste 11 Oeste 0 -- -- 54
2018-05-15 05:00:00 12.3 2 Noroeste 13 Noroeste 0 -- -- 49
2018-05-15 04:00:00 12.8 4 Noroeste 13 Oeste 0 -- -- 47
2018-05-15 03:00:00 13.1 3 Noroeste 10 Oeste 0 -- -- 45
2018-05-15 02:00:00 12.6 5 Oeste 10 Oeste 0 -- -- 45
2018-05-15 01:00:00 13.3 0 Calma 6 Noroeste 0 -- -- 43
2018-05-15 00:00:00 14 0 Calma 6 Noroeste 0 -- -- 42
2018-05-14 23:00:00 14.6 0 Calma 6 Noroeste 0 -- -- 35
2018-05-14 22:00:00 14.9 4 Este 20 Este 0 -- -- 35
2018-05-14 21:00:00 15.6 9 Este 22 Nordeste 0 -- -- 34
2018-05-14 20:00:00 16.6 12 Nordeste 27 Este 0 -- -- 34
2018-05-14 19:00:00 18.1 13 Nordeste 31 Este 0 -- -- 32
2018-05-14 18:00:00 18.4 14 Nordeste 34 Nordeste 0 -- -- 32
2018-05-14 17:00:00 18.9 14 Nordeste 36 Este 0 -- -- 31
2018-05-14 16:00:00 20.8 13 Nordeste 28 Nordeste 0 -- -- 29
2018-05-14 15:00:00 21.1 10 Nordeste 33 Este 0 -- -- 28
2018-05-14 14:00:00 22.6 3 Nordeste 15 Norte 0 -- -- 25
2018-05-14 13:00:00 21 5 Norte 15 Noroeste 0 -- -- 27
2018-05-14 12:00:00 20.6 4 Nordeste 19 Noroeste 0 -- -- 29
2018-05-14 11:00:00 18.9 7 Noroeste 17 Norte 0 -- -- 31
2018-05-14 10:00:00 16.6 5 Norte 14 Noroeste 0 -- -- 33
2018-05-14 09:00:00 15 4 Noroeste 15 Noroeste 0 -- -- 38
2018-05-14 08:00:00 11.8 5 Norte 14 Noroeste 0 -- -- 41
2018-05-14 07:00:00 10.6 3 Noroeste 12 Noroeste 0 -- -- 41
2018-05-14 06:00:00 11.4 4 Noroeste 15 Oeste 0 -- -- 40
2018-05-14 05:00:00 9.9 8 Oeste 15 Oeste 0 -- -- 42
2018-05-14 04:00:00 11.5 3 Noroeste 11 Noroeste 0 -- -- 39
2018-05-14 03:00:00 11.8 4 Noroeste 13 Noroeste 0 -- -- 39
2018-05-14 02:00:00 12 5 Noroeste 14 Noroeste 0 -- -- 40
2018-05-14 01:00:00 11.8 5 Noroeste 10 Norte 0 -- -- 44
2018-05-11 20:00:00 19.4 9 Este 18 Este 0 -- -- 57
2018-05-11 19:00:00 20.4 11 Nordeste 22 Este 0 -- -- 52
2018-05-11 18:00:00 20.8 12 Este 28 Este 0 -- -- 52
2018-05-11 17:00:00 20.9 14 Nordeste 31 Este 0 -- -- 52
2018-05-11 16:00:00 22 12 Nordeste 31 Este 0 -- -- 49
2018-05-11 15:00:00 21.7 13 Nordeste 31 Nordeste 0 -- -- 49
2018-05-11 14:00:00 21.1 12 Nordeste 29 Nordeste 0 -- -- 50
2018-05-11 13:00:00 20 12 Nordeste 25 Este 0 -- -- 52
2018-05-11 12:00:00 19.5 12 Nordeste 26 Este 0 -- -- 55
2018-05-11 11:00:00 18 12 Nordeste 23 Nordeste 0 -- -- 59
2018-05-11 10:00:00 17.3 0 Calma 7 Nordeste 0 -- -- 67
2018-05-11 09:00:00 14.2 0 Calma 6 Noroeste 0 -- -- 82
2018-05-11 08:00:00 12 0 Calma 5 Norte 0 -- -- 88
2018-05-11 07:00:00 11.5 0 Calma 8 Noroeste 0 -- -- 83
2018-05-11 06:00:00 11.9 0 Calma 12 Noroeste 0 -- -- 81
2018-05-11 05:00:00 12.2 2 Noroeste 15 Noroeste 0 -- -- 85
2018-05-11 04:00:00 12.6 0 Calma 7 Norte 0 -- -- 87
2018-05-11 03:00:00 13.4 0 Calma 13 Este 0 -- -- 94
2018-05-11 02:00:00 13.5 0 Calma 12 Este 0 -- -- 94
2018-05-11 01:00:00 13.9 0 Calma 10 Noroeste 0 -- -- 81
2018-05-11 00:00:00 13.9 0 Calma 8 Nordeste 0 -- -- 93
2018-05-10 23:00:00 14.8 5 Nordeste 15 Nordeste 0 -- -- 94
2018-05-10 22:00:00 15.4 0 Calma 8 Noroeste 0 -- -- 91
2018-05-10 21:00:00 15.4 3 Norte 11 Nordeste 0 -- -- 94
2018-05-10 20:00:00 15.5 6 Nordeste 28 Este 0 -- -- 93
2018-05-10 19:00:00 15.9 17 Nordeste 35 Nordeste 0 -- -- 84
2018-05-10 18:00:00 18.6 12 Este 36 Nordeste 0 -- -- 61
2018-05-10 17:00:00 20.6 16 Nordeste 35 Este 0 -- -- 53
2018-05-10 16:00:00 20.2 18 Nordeste 42 Nordeste 0 -- -- 52
2018-05-10 15:00:00 20.5 17 Norte 33 Noroeste 0 -- -- 52
2018-05-10 14:00:00 21.2 12 Nordeste 27 Este 0 -- -- 49
2018-05-10 13:00:00 22.4 9 Nordeste 18 Este 0 -- -- 46
2018-05-10 12:00:00 20.8 4 Norte 11 Nordeste 0 -- -- 53
2018-05-10 11:00:00 19 3 Nordeste 15 Norte 0 -- -- 61
2018-05-10 10:00:00 19.3 8 Noroeste 14 Noroeste 0 -- -- 63
2018-05-10 09:00:00 15.7 5 Noroeste 17 Norte 0 -- -- 77
2018-05-10 08:00:00 14.4 7 Noroeste 17 Noroeste 0 -- -- 80
2018-05-10 07:00:00 13.8 5 Noroeste 14 Norte 0 -- -- 86
2018-05-10 06:00:00 14.6 4 Norte 15 Noroeste 0 -- -- 79
2018-05-10 05:00:00 14.3 6 Noroeste 19 Noroeste 0 -- -- 84
2018-05-10 04:00:00 14.7 7 Noroeste 18 Noroeste 0 -- -- 84
2018-05-10 03:00:00 15.8 7 Noroeste 22 Noroeste 0 -- -- 75
2018-05-10 02:00:00 16.6 8 Noroeste 18 Norte 0 -- -- 71
2018-05-10 01:00:00 16.7 8 Noroeste 19 Noroeste 0 -- -- 72
2018-05-10 00:00:00 17.4 10 Noroeste 21 Noroeste 0 -- -- 66
2018-05-09 23:00:00 18.4 8 Noroeste 21 Noroeste 0 -- -- 60
2018-05-09 22:00:00 17.5 8 Noroeste 16 Noroeste 0 -- -- 57
2018-05-09 21:00:00 18.5 7 Noroeste 14 Noroeste 0 -- -- 58
2018-05-09 20:00:00 20.4 5 Noroeste 23 Noroeste 0 -- -- 48
2018-05-09 19:00:00 22.3 8 Noroeste 27 Noroeste 0 -- -- 41
2018-05-09 18:00:00 21.4 8 Nordeste 27 Nordeste 0 -- -- 53
2018-05-09 17:00:00 21.4 9 Nordeste 23 Nordeste 0 -- -- 51
2018-05-09 16:00:00 22.7 7 Nordeste 20 Este 0 -- -- 49
2018-05-09 15:00:00 23.2 7 Nordeste 19 Nordeste 0 -- -- 43
2018-05-09 14:00:00 19.3 5 Nordeste 11 Nordeste 0 -- -- 58
2018-05-09 13:00:00 20.2 5 Noroeste 21 Norte 0 -- -- 55
2018-05-09 12:00:00 21 8 Norte 24 Norte 0 -- -- 50
2018-05-09 11:00:00 21.3 8 Norte 23 Noroeste 0 -- -- 49
2018-05-09 10:00:00 20.6 8 Noroeste 18 Noroeste 0 -- -- 50
2018-05-09 09:00:00 18.5 6 Noroeste 15 Norte 0 -- -- 56
2018-05-09 08:00:00 15.6 5 Norte 16 Oeste 0 -- -- 63
2018-05-09 07:00:00 13.9 6 Oeste 14 Oeste 0 -- -- 70
2018-05-09 06:00:00 13.2 5 Noroeste 14 Norte 0 -- -- 74
2018-05-09 05:00:00 14.1 7 Norte 17 Norte 0 -- -- 71
2018-05-09 04:00:00 14.1 6 Norte 13 Noroeste 0 -- -- 74
2018-05-09 03:00:00 15.9 5 Norte 17 Noroeste 0 -- -- 64
2018-05-09 02:00:00 15.3 7 Norte 18 Noroeste 0 -- -- 71
2018-05-09 01:00:00 15.3 5 Norte 14 Norte 0 -- -- 74
2018-05-09 00:00:00 15 4 Noroeste 12 Nordeste 0 -- -- 80
2018-05-08 23:00:00 15.8 5 Noroeste 14 Noroeste 0 -- -- 75
2018-05-08 22:00:00 15.6 3 Noroeste 16 Norte 0 -- -- 75
2018-05-08 21:00:00 15.5 4 Noroeste 16 Noroeste 0 -- -- 82
2018-05-08 20:00:00 18.9 0 Calma 12 Este 0 -- -- 52
2018-05-08 19:00:00 19.4 5 Este 18 Este 0 -- -- 52
2018-05-08 18:00:00 19.5 7 Nordeste 29 Nordeste 0 -- -- 60
2018-05-08 17:00:00 16.8 10 Nordeste 33 Nordeste 0 -- -- 78
2018-05-08 16:00:00 19.6 13 Nordeste 31 Este 0 -- -- 45
2018-05-08 15:00:00 23.3 4 Noroeste 22 Noroeste 0 -- -- 33
2018-05-08 14:00:00 24.7 7 Noroeste 19 Noroeste 0 -- -- 31
2018-05-08 13:00:00 22.2 3 Nordeste 15 Nordeste 0 -- -- 36
2018-05-08 12:00:00 22 3 Nordeste 14 Noroeste 0 -- -- 38
2018-05-08 11:00:00 22.1 3 Norte 13 Noroeste 0 -- -- 43
2018-05-08 10:00:00 19.1 5 Noroeste 15 Norte 0 -- -- 50
2018-05-08 09:00:00 16.2 5 Norte 14 Noroeste 0 -- -- 60
2018-05-08 08:00:00 13.4 3 Norte 13 Norte 0 -- -- 63
2018-05-08 07:00:00 12.2 6 Oeste 13 Noroeste 0 -- -- 67
2018-05-08 06:00:00 13.1 7 Oeste 16 Oeste 0 -- -- 68
2018-05-08 05:00:00 11.8 3 Norte 10 Norte 0 -- -- 86
2018-05-08 04:00:00 11.7 4 Noroeste 9 Norte 0 -- -- 94
2018-05-08 03:00:00 12 0 Calma 8 Nordeste 0 -- -- 93
2018-05-08 02:00:00 12.3 2 Nordeste 9 Este 0 -- -- 88
2018-05-08 01:00:00 13.2 0 Calma 10 Oeste 0 -- -- 79
2018-05-08 00:00:00 13.1 2 Noroeste 9 Noroeste 0 -- -- 88
2018-05-07 23:00:00 13.6 3 Norte 8 Norte 0 -- -- 89
2018-05-07 22:00:00 14 2 Norte 9 Nordeste 0 -- -- 90
2018-05-07 21:00:00 14.4 0 Calma -- -- -- -- -- 89
2018-05-07 20:00:00 14.7 5 Nordeste 26 Nordeste 0 -- -- 84
2018-05-07 19:00:00 17.4 12 Este 31 Este 0 -- -- 59
2018-05-07 18:00:00 18.9 6 Nordeste 23 Noroeste 0 -- -- 49
2018-05-07 17:00:00 20.3 5 Norte 19 Este 0 -- -- 39
2018-05-07 16:00:00 21.3 5 Nordeste 24 Este 0 -- -- 38
2018-05-07 15:00:00 21.8 8 Nordeste 24 Este 0 -- -- 41
2018-05-07 14:00:00 20.6 11 Nordeste 27 Este 0 -- -- 43
2018-05-07 13:00:00 19.9 13 Nordeste 27 Nordeste 0 -- -- 45
2018-05-07 12:00:00 18.3 10 Nordeste 28 Este 0 -- -- 46
2018-05-07 11:00:00 17.6 12 Este 23 Nordeste 0 -- -- 48
2018-05-07 10:00:00 15.8 7 Nordeste 16 Este 0 -- -- 56
2018-05-07 09:00:00 13 4 Nordeste 8 Nordeste 0 -- -- 64
2018-05-07 08:00:00 11.4 4 Noroeste 17 Noroeste 0 -- -- 65
2018-05-07 07:00:00 10.8 7 Noroeste 17 Oeste 0 -- -- 71
2018-05-07 06:00:00 10.1 8 Noroeste 14 Oeste 0 -- -- 77
2018-05-07 05:00:00 11 2 Noroeste 8 Oeste 0 -- -- 73
2018-05-07 04:00:00 11.5 2 Oeste 9 Oeste 0 -- -- 69
2018-05-07 03:00:00 11.8 3 Noroeste 12 Norte 0 -- -- 64
2018-05-07 02:00:00 12.3 2 Nordeste 9 Nordeste 0 -- -- 64
2018-05-07 01:00:00 12.7 2 Noroeste 7 Noroeste 0 -- -- 59
2018-05-07 00:00:00 13 3 Noroeste 10 Noroeste 0 -- -- 54
2018-05-06 23:00:00 13.6 3 Nordeste 10 Nordeste 0 -- -- 57
2018-05-06 22:00:00 14.7 0 Calma 9 Noroeste 0 -- -- 53
2018-05-06 21:00:00 16.1 5 Nordeste 22 Noroeste 0 -- -- 44
2018-05-06 20:00:00 17 9 Norte 29 Nordeste 0 -- -- 42
2018-05-06 19:00:00 17.4 12 Nordeste 34 Nordeste 0 -- -- 45
2018-05-06 18:00:00 18.9 13 Nordeste 31 Norte 0 -- -- 42
2018-05-06 17:00:00 18.2 14 Nordeste 35 Nordeste 0 -- -- 45
2018-05-06 16:00:00 19.1 16 Nordeste 37 Nordeste 0 -- -- 46
2018-05-06 15:00:00 20.3 14 Nordeste 35 Este 0 -- -- 44
2018-05-06 14:00:00 19.4 14 Nordeste 29 Este 0 -- -- 47
2018-05-06 13:00:00 19 13 Nordeste 30 Este 0 -- -- 49
2018-05-06 12:00:00 17.7 13 Este 26 Este 0 -- -- 51
2018-05-06 11:00:00 16.3 11 Nordeste 26 Nordeste 0 -- -- 55
2018-05-06 10:00:00 15.1 7 Nordeste 17 Nordeste 0 -- -- 61
2018-05-06 09:00:00 13.9 0 Calma 7 Oeste 0 -- -- 72
2018-05-06 08:00:00 10.8 3 Norte 9 Noroeste 0 -- -- 78
2018-05-06 07:00:00 9.9 0 Calma 9 Oeste 0 -- -- 79
2018-05-06 06:00:00 10.4 0 Calma 8 Sur 0 -- -- 85
2018-05-06 05:00:00 10.2 0 Calma 4 Nordeste 0 -- -- 89
2018-05-06 04:00:00 10.4 0 Calma 7 Noroeste 0 -- -- 85
2018-05-06 03:00:00 10.9 2 Noroeste 8 Norte 0 -- -- 82
2018-05-06 02:00:00 11.2 0 Calma 6 Nordeste 0 -- -- 86
2018-05-06 01:00:00 12 2 Nordeste 7 Nordeste 0 -- -- 89
2018-05-06 00:00:00 12.5 2 Norte 8 Norte 0 -- -- 76
2018-05-05 23:00:00 12.9 2 Norte 9 Noroeste 0 -- -- 81
2018-05-05 22:00:00 12.9 2 Noroeste 8 Norte 0 -- -- 84
2018-05-05 21:00:00 13.8 0 Calma 9 Este 0 -- -- 79
2018-05-05 20:00:00 13.8 3 Nordeste 17 Nordeste 0 -- -- 91
2018-05-05 19:00:00 15.4 6 Nordeste 20 Este 0 -- -- 82
2018-05-05 18:00:00 16.4 13 Este 28 Nordeste 0 -- -- 61
2018-05-05 17:00:00 18.1 11 Nordeste 28 Este 0 -- -- 53
2018-05-05 16:00:00 19.7 11 Nordeste 25 Este 0 -- -- 45
2018-05-05 15:00:00 19.6 11 Nordeste 27 Este 0 -- -- 45
2018-05-05 14:00:00 18 10 Nordeste 27 Nordeste 0 -- -- 49
2018-05-05 13:00:00 17.1 12 Este 24 Nordeste 0 -- -- 52
2018-05-05 12:00:00 18.5 5 Nordeste 14 Norte 0 -- -- 45
2018-05-05 11:00:00 17 2 Norte 11 Noroeste 0 -- -- 56
2018-05-05 10:00:00 13.6 5 Noroeste 13 Noroeste 0 -- -- 68
2018-05-05 09:00:00 12.9 4 Noroeste 12 Norte 0 -- -- 70
2018-05-05 08:00:00 12 2 Noroeste 12 Noroeste 0 -- -- 76
2018-05-05 07:00:00 11.4 2 Norte 9 Norte 0 -- -- 83
2018-05-05 06:00:00 11.1 0 Calma 6 Noroeste 0 -- -- 88
2018-05-05 05:00:00 10.7 2 Norte 8 Noroeste 0 -- -- 82
2018-05-05 04:00:00 10.8 3 Norte 9 Norte 0 -- -- 82
2018-05-05 03:00:00 10.7 0 Calma 6 Este 0 -- -- 88
2018-05-05 02:00:00 11.2 0 Calma 8 Norte 0 -- -- 80
2018-05-05 01:00:00 11.7 2 Noroeste 10 Noroeste 0 -- -- 74
2018-05-05 00:00:00 11.7 3 Noroeste 9 Noroeste 0 -- -- 76
2018-05-04 23:00:00 12.2 2 Noroeste 6 Noroeste 0 -- -- 75
2018-05-04 22:00:00 12.9 3 Norte 12 Este 0 -- -- 75
2018-05-04 21:00:00 13.5 5 Este 19 Este 0 -- -- 71
2018-05-04 20:00:00 14.4 10 Nordeste 28 Este 0 -- -- 65
2018-05-04 19:00:00 15.5 11 Este 25 Este 0 -- -- 56
2018-05-04 18:00:00 18 13 Este 26 Este 0 -- -- 48
2018-05-04 17:00:00 16.7 12 Nordeste 37 Nordeste 0 -- -- 51
2018-05-04 16:00:00 19.1 7 Nordeste 24 Noroeste 0 -- -- 44
2018-05-04 15:00:00 18.1 7 Nordeste 19 Nordeste 0 -- -- 47
2018-05-04 14:00:00 17.8 10 Nordeste 29 Este 0 -- -- 51
2018-05-04 13:00:00 15.7 12 Este 26 Este 0 -- -- 56
2018-05-04 12:00:00 16.5 12 Nordeste 27 Este 0 -- -- 59
2018-05-04 11:00:00 15.6 14 Nordeste 27 Nordeste 0 -- -- 59
2018-05-04 10:00:00 14.5 0 Calma 12 Noroeste 0 -- -- 63
2018-05-04 09:00:00 12.5 4 Noroeste 15 Norte 0 -- -- 67
2018-05-04 08:00:00 12 5 Noroeste 11 Norte 0 -- -- 69
2018-05-04 07:00:00 12 4 Oeste 13 Noroeste 0 -- -- 66
2018-05-04 06:00:00 12.3 0 Calma 9 Noroeste 0 -- -- 65
2018-05-04 05:00:00 12.4 3 Noroeste 13 Noroeste 0 -- -- 67
2018-05-04 04:00:00 12.6 4 Noroeste 13 Noroeste 0 -- -- 63
2018-05-04 03:00:00 13.4 5 Noroeste 15 Norte 0 -- -- 57
2018-05-04 02:00:00 13.3 5 Noroeste 15 Norte 0 -- -- 60
2018-05-04 01:00:00 13.6 6 Noroeste 12 Noroeste 0 -- -- 58
2018-05-04 00:00:00 14.1 5 Norte 21 Norte 0 -- -- 56
2018-05-03 23:00:00 14.2 4 Norte 19 Noroeste 0 -- -- 56
2018-05-03 22:00:00 14.8 3 Noroeste 12 Oeste 0 -- -- 56
2018-05-03 21:00:00 14.6 2 Norte 20 Este 0 -- -- 54
2018-05-03 20:00:00 15.3 6 Nordeste 15 Nordeste 0 -- -- 54
2018-05-03 19:00:00 16.2 3 Norte 14 Noroeste 0 -- -- 54
2018-05-03 18:00:00 15.5 3 Norte 15 Noroeste 0 -- -- 56
2018-05-03 17:00:00 18.2 9 Noroeste 15 Noroeste 0 -- -- 41
2018-05-03 16:00:00 18.8 4 Norte 14 Noroeste 0 -- -- 38
2018-05-03 15:00:00 19.9 3 Nordeste 11 Nordeste 0 -- -- 34
2018-05-03 14:00:00 19.6 3 Norte 12 Norte 0 -- -- 34
2018-05-03 13:00:00 18.7 4 Norte 14 Noroeste 0 -- -- 34
2018-05-03 12:00:00 18.1 3 Nordeste 11 Noroeste 0 -- -- 38
2018-05-03 11:00:00 17 5 Noroeste 15 Nordeste 0 -- -- 41
2018-05-03 10:00:00 15.6 5 Noroeste 17 Noroeste 0 -- -- 45
2018-05-03 09:00:00 11.3 7 Noroeste 16 Norte 0 -- -- 60
2018-05-03 08:00:00 9.4 6 Norte 20 Norte 0 -- -- 65
2018-05-03 07:00:00 8.6 8 Noroeste 18 Noroeste 0 -- -- 66
2018-05-03 06:00:00 9 7 Noroeste 14 Noroeste 0 -- -- 65
2018-05-03 05:00:00 10.6 4 Norte 14 Noroeste 0 -- -- 58
2018-05-03 04:00:00 10.1 3 Noroeste 15 Oeste 0 -- -- 60
2018-05-03 03:00:00 10.5 2 Noroeste 15 Noroeste 0 -- -- 57
2018-05-03 02:00:00 10.4 8 Noroeste 16 Norte 0 -- -- 53
2018-05-03 01:00:00 10.9 6 Noroeste 16 Norte 0 -- -- 49
2018-05-03 00:00:00 12 4 Norte 21 Noroeste 0 -- -- 44
2018-05-02 23:00:00 12.3 4 Noroeste 17 Noroeste 0 -- -- 42
2018-05-02 22:00:00 12.7 5 Norte 22 Noroeste 0 -- -- 42
2018-05-02 21:00:00 13.8 5 Noroeste 15 Noroeste 0 -- -- 42
2018-05-02 20:00:00 13.9 5 Nordeste 17 Este 0 -- -- 43
2018-05-02 19:00:00 14.6 8 Nordeste 23 Este 0 -- -- 41
2018-05-02 18:00:00 15 12 Nordeste 31 Este 0 -- -- 40
2018-05-02 17:00:00 15.8 9 Nordeste 30 Nordeste 0 -- -- 38
2018-05-02 16:00:00 19.7 6 Norte 18 Norte 0 -- -- 30
2018-05-02 15:00:00 18.8 6 Norte 18 Noroeste 0 -- -- 30
2018-05-02 14:00:00 17.3 4 Norte 18 Noroeste 0 -- -- 32
2018-05-02 13:00:00 17.4 4 Norte 21 Norte 0 -- -- 34
2018-05-02 12:00:00 15.5 6 Norte 18 Norte 0 -- -- 41
2018-05-02 11:00:00 14.3 8 Noroeste 16 Norte 0 -- -- 45
2018-05-02 10:00:00 12.6 7 Noroeste 14 Noroeste 0 -- -- 53
2018-05-02 09:00:00 9.4 9 Noroeste 18 Noroeste 0 -- -- 64
2018-05-02 08:00:00 6.4 9 Noroeste 18 Noroeste 0 -- -- 71
2018-05-02 07:00:00 4.5 5 Norte 19 Norte 0 -- -- 76
2018-05-02 06:00:00 4.3 10 Noroeste 19 Norte 0 -- -- 78
2018-05-02 05:00:00 4.8 6 Noroeste 14 Noroeste 0 -- -- 77
2018-05-02 04:00:00 5.1 9 Noroeste 18 Noroeste 0 -- -- 74
2018-05-02 03:00:00 5.2 6 Noroeste 13 Oeste 0 -- -- 77
2018-05-02 02:00:00 6.5 4 Noroeste 14 Noroeste 0 -- -- 70
2018-05-02 01:00:00 6 5 Norte 17 Noroeste 0 -- -- 74
2018-05-02 00:00:00 6.9 6 Noroeste 21 Noroeste 0 -- -- 71
2018-05-01 23:00:00 7.6 5 Norte 19 Norte 0 -- -- 68
2018-05-01 22:00:00 7.7 4 Norte 20 Noroeste 0 -- -- 68
2018-05-01 21:00:00 7.7 5 Oeste 10 Oeste 0 -- -- 84
2018-05-01 20:00:00 7.8 0 Calma 9 Nordeste 0 -- -- 78
2018-05-01 19:00:00 8.7 2 Nordeste 13 Norte 0 -- -- 74
2018-05-01 18:00:00 6.9 3 Nordeste 17 Nordeste 0 -- -- 84
2018-05-01 17:00:00 6.5 8 Nordeste 17 Norte 0 -- -- 86
2018-05-01 16:00:00 6.7 15 Noroeste 31 Noroeste 0 -- -- 75
2018-05-01 15:00:00 9.6 12 Nordeste 31 Noroeste 0 -- -- 57
2018-05-01 14:00:00 14.4 7 Norte 22 Norte 0 -- -- 42
2018-05-01 13:00:00 12.3 12 Noroeste 27 Noroeste 0 -- -- 48
2018-05-01 12:00:00 12.6 8 Noroeste 18 Norte 0 -- -- 42
2018-05-01 11:00:00 13.3 8 Norte 19 Noroeste 0 -- -- 42
2018-05-01 10:00:00 12.1 5 Noroeste 15 Noroeste 0 -- -- 49
2018-05-01 09:00:00 11.6 5 Noroeste 14 Norte 0 -- -- 56
2018-05-01 08:00:00 8.3 6 Noroeste 15 Noroeste 0 -- -- 64
2018-05-01 07:00:00 6.5 7 Noroeste 14 Norte 0 -- -- 71
2018-05-01 06:00:00 7.3 3 Norte 14 Noroeste 0 -- -- 64
2018-05-01 05:00:00 7.5 7 Noroeste 14 Noroeste 0 -- -- 63
2018-05-01 04:00:00 8.1 6 Noroeste 18 Noroeste 0 -- -- 60
2018-05-01 03:00:00 8.5 8 Noroeste 21 Noroeste 0 -- -- 58
2018-05-01 02:00:00 8.9 6 Norte 21 Norte 0 -- -- 56
2018-05-01 01:00:00 9.6 8 Norte 23 Noroeste 0 -- -- 52
2018-05-01 00:00:00 10.4 7 Norte 22 Este 0 -- -- 50
2018-04-30 23:00:00 10.7 6 Norte 21 Oeste 0 -- -- 51
2018-04-30 22:00:00 10.9 9 Norte 22 Noroeste 0 -- -- 49
2018-04-30 21:00:00 11.7 8 Noroeste 23 Noroeste 0 -- -- 48
2018-04-30 20:00:00 12.7 7 Noroeste 27 Norte 0 -- -- 44
2018-04-30 19:00:00 14 9 Noroeste 18 Noroeste 0 -- -- 40
2018-04-30 18:00:00 15.4 9 Noroeste 22 Noroeste 0 -- -- 37
2018-04-30 17:00:00 15.2 10 Noroeste 23 Noroeste 0 -- -- 38
2018-04-30 16:00:00 15.3 10 Noroeste 25 Noroeste 0 -- -- 39
2018-04-30 15:00:00 15.7 8 Norte 20 Noroeste 0 -- -- 38
2018-04-30 14:00:00 16.1 8 Norte 19 Noroeste 0 -- -- 38
2018-04-30 13:00:00 14.7 5 Norte 20 Nordeste 0 -- -- 39
2018-04-30 12:00:00 13.7 5 Norte 16 Norte 0 -- -- 44
2018-04-30 11:00:00 12.5 8 Norte 16 Norte 0 -- -- 49
2018-04-30 10:00:00 11.2 5 Norte 18 Noroeste 0 -- -- 53
2018-04-30 09:00:00 10.2 5 Noroeste 14 Noroeste 0 -- -- 61
2018-04-30 08:00:00 7.3 4 Norte 14 Norte 0 -- -- 70
2018-04-30 07:00:00 6.5 8 Noroeste 15 Noroeste 0 -- -- 72
2018-04-30 06:00:00 5.8 7 Oeste 14 Noroeste 0 -- -- 74
2018-04-30 05:00:00 7.2 6 Noroeste 18 Oeste 0 -- -- 64
2018-04-30 04:00:00 7.2 6 Noroeste 20 Noroeste 0 -- -- 63
2018-04-30 03:00:00 7.7 5 Noroeste 18 Oeste 0 -- -- 61
2018-04-30 02:00:00 8.2 4 Norte 15 Oeste 0 -- -- 57
2018-04-30 01:00:00 8.7 5 Norte 15 Norte 0 -- -- 56
2018-04-30 00:00:00 9.6 4 Noroeste 14 Noroeste 0 -- -- 51
2018-04-29 23:00:00 10.2 5 Norte 17 Norte 0 -- -- 47
2018-04-29 22:00:00 10.9 8 Noroeste 21 Noroeste 0 -- -- 45
2018-04-29 21:00:00 11.8 8 Noroeste 28 Noroeste 0 -- -- 42
2018-04-29 20:00:00 12.7 11 Noroeste 28 Noroeste 0 -- -- 41
2018-04-29 19:00:00 14.1 12 Noroeste 32 Noroeste 0 -- -- 36
2018-04-29 18:00:00 14.8 12 Norte 34 Norte 0 -- -- 37
2018-04-29 17:00:00 15 13 Norte 39 Noroeste 0 -- -- 38
2018-04-29 16:00:00 15.2 15 Noroeste 33 Noroeste 0 -- -- 38
2018-04-29 15:00:00 14.4 14 Noroeste 34 Norte 0 -- -- 38
2018-04-29 14:00:00 14.7 15 Noroeste 32 Noroeste 0 -- -- 39
2018-04-29 13:00:00 12.1 14 Norte 35 Noroeste 0 -- -- 42
2018-04-29 12:00:00 13.2 12 Noroeste 31 Norte 0 -- -- 42
2018-04-29 11:00:00 13.1 10 Norte 36 Norte 0 -- -- 43
2018-04-29 10:00:00 11 17 Noroeste 35 Noroeste 0 -- -- 54
2018-04-29 09:00:00 8.2 10 Noroeste 29 Norte 0 -- -- 66
2018-04-29 08:00:00 7.9 14 Noroeste 29 Norte 0 -- -- 68
2018-04-29 07:00:00 7.3 9 Noroeste 20 Noroeste 0 -- -- 71
2018-04-29 06:00:00 7.6 0 Calma 6 Norte 0 -- -- 69
2018-04-29 05:00:00 8.2 2 Nordeste 12 Noroeste 0 -- -- 63
2018-04-29 04:00:00 9 7 Noroeste 14 Norte 0 -- -- 60
2018-04-29 03:00:00 9 6 Norte 25 Noroeste 0 -- -- 58
2018-04-29 02:00:00 9.9 7 Noroeste 18 Norte 0 -- -- 51
2018-04-29 01:00:00 12.7 3 Norte 14 Norte 0 -- -- 44
2018-04-29 00:00:00 13.9 3 Nordeste 21 Oeste 0 -- -- 40
2018-04-28 23:00:00 14.3 0 Calma 14 Oeste 0 -- -- 39
2018-04-28 22:00:00 15.7 5 Noroeste 21 Noroeste 0 -- -- 27
2018-04-28 21:00:00 17 9 Noroeste 27 Noroeste 0 -- -- 24
2018-04-28 20:00:00 18.6 6 Noroeste 28 Norte 0 -- -- 22
2018-04-28 19:00:00 21.1 9 Noroeste 27 Norte 0 -- -- 19
2018-04-28 18:00:00 22.3 12 Noroeste 39 Norte 0 -- -- 18
2018-04-28 17:00:00 21.9 17 Noroeste 46 Noroeste 0 -- -- 18
2018-04-28 16:00:00 23.1 17 Noroeste 56 Norte 0 -- -- 19
2018-04-28 15:00:00 22.9 17 Noroeste 42 Noroeste 0 -- -- 23
2018-04-28 14:00:00 23.4 10 Noroeste 23 Noroeste 0 -- -- 26
2018-04-28 13:00:00 21.6 5 Norte 14 Nordeste 0 -- -- 30
2018-04-28 12:00:00 20.4 3 Nordeste 12 Nordeste 0 -- -- 38
2018-04-28 11:00:00 19.2 2 Norte 10 Noroeste 0 -- -- 48
2018-04-28 10:00:00 16.7 3 Nordeste 10 Este 0 -- -- 58
2018-04-28 09:00:00 14.7 4 Noroeste 13 Oeste 0 -- -- 66
2018-04-28 08:00:00 11.9 4 Noroeste 13 Noroeste 0 -- -- 77
2018-04-28 07:00:00 11.1 4 Noroeste 17 Norte 0 -- -- 80
2018-04-28 06:00:00 11.5 2 Sudoeste 12 Oeste 0 -- -- 80
2018-04-28 05:00:00 12.3 3 Norte 14 Noroeste 0 -- -- 78
2018-04-28 04:00:00 12.9 3 Noroeste 14 Oeste 0 -- -- 75
2018-04-28 03:00:00 13.4 5 Noroeste 17 Oeste 0 -- -- 70
2018-04-28 02:00:00 14.2 6 Noroeste 16 Oeste 0 -- -- 67
2018-04-28 01:00:00 14.7 5 Noroeste 21 Noroeste 0 -- -- 66
2018-04-28 00:00:00 15.2 4 Norte 19 Noroeste 0 -- -- 64
2018-04-27 23:00:00 15.1 6 Noroeste 24 Noroeste 0 -- -- 65
2018-04-27 22:00:00 15.7 4 Norte 15 Oeste 0 -- -- 68
2018-04-27 21:00:00 16.2 6 Noroeste 23 Noroeste 0 -- -- 66
2018-04-27 20:00:00 15.7 5 Noroeste 23 Noroeste 0 -- -- 72
2018-04-27 19:00:00 18.4 6 Noroeste 22 Norte 0 -- -- 47
2018-04-27 18:00:00 18.8 0 Calma 13 Noroeste 0 -- -- 58
2018-04-27 17:00:00 16.4 5 Noroeste 19 Este 0 -- -- 77
2018-04-27 16:00:00 15.1 6 Noroeste 36 Este 0 -- -- 67
2018-04-27 15:00:00 23.2 15 Este 33 Nordeste 0 -- -- 42
2018-04-27 14:00:00 20.9 19 Nordeste 34 Nordeste 0 -- -- 47
2018-04-27 13:00:00 23.3 6 Norte 18 Norte 0 -- -- 41
2018-04-27 12:00:00 21.4 8 Norte 20 Noroeste 0 -- -- 45
2018-04-27 11:00:00 21.2 8 Norte 18 Norte 0 -- -- 52
2018-04-27 10:00:00 18.7 7 Noroeste 19 Norte 0 -- -- 62
2018-04-27 09:00:00 17.2 9 Noroeste 18 Noroeste 0 -- -- 64
2018-04-27 08:00:00 14.9 5 Norte 19 Norte 0 -- -- 72
2018-04-27 07:00:00 13.6 7 Noroeste 22 Norte 0 -- -- 75
2018-04-27 06:00:00 14.7 6 Norte 19 Norte 0 -- -- 74
2018-04-27 05:00:00 14.4 5 Noroeste 18 Norte 0 -- -- 66
2018-04-27 04:00:00 12.2 6 Noroeste 13 Noroeste 0 -- -- 78
2018-04-27 03:00:00 12.3 4 Noroeste 12 Noroeste 0 -- -- 78
2018-04-27 02:00:00 11.7 3 Noroeste 10 Noroeste 0 -- -- 89
2018-04-27 01:00:00 11.6 0 Calma 5 Norte 0 -- -- 95
2018-04-27 00:00:00 12.5 0 Calma 8 Oeste 0 -- -- 95
2018-04-26 23:00:00 12.9 0 Calma 6 Este 0 -- -- 93
2018-04-26 22:00:00 13 4 Nordeste 14 Este 0 -- -- 93
2018-04-26 21:00:00 13.5 8 Nordeste 17 Este 0 -- -- 90
2018-04-26 20:00:00 15.4 7 Nordeste 18 Este 0 -- -- 78
2018-04-26 19:00:00 16.4 8 Nordeste 19 Nordeste 0 -- -- 70
2018-04-26 18:00:00 17.7 4 Nordeste 14 Nordeste 0 -- -- 56
2018-04-26 17:00:00 17.3 5 Nordeste 13 Este 0 -- -- 63
2018-04-26 16:00:00 16.6 3 Nordeste 10 Noroeste 0 -- -- 63
2018-04-26 15:00:00 17 5 Noroeste 15 Norte 0 -- -- 65
2018-04-26 14:00:00 14.9 6 Noroeste 14 Norte 0 -- -- 80
2018-04-26 13:00:00 13.8 4 Norte 23 Este 0 -- -- 83
2018-04-26 12:00:00 14.9 8 Noroeste 17 Noroeste 0 -- -- 83
2018-04-26 11:00:00 13.7 4 Oeste 11 Noroeste 0 -- -- 88
2018-04-26 10:00:00 13.3 4 Noroeste 16 Oeste 0 -- -- 86
2018-04-26 09:00:00 12.7 3 Norte 14 Noroeste 0 -- -- 91
2018-04-26 08:00:00 12.2 8 Noroeste 14 Noroeste 0 -- -- 93
2018-04-26 07:00:00 12.5 6 Noroeste 14 Noroeste 0 -- -- 90
2018-04-26 06:00:00 13.6 5 Noroeste 14 Oeste 0 -- -- 78
2018-04-26 05:00:00 13.5 3 Norte 13 Oeste 0 -- -- 78
2018-04-26 04:00:00 13.6 6 Noroeste 12 Oeste 0 -- -- 77
2018-04-26 03:00:00 13.4 3 Noroeste 13 Oeste 0 -- -- 77
2018-04-26 02:00:00 13.5 4 Noroeste 13 Norte 0 -- -- 78
2018-04-26 01:00:00 13.6 5 Noroeste 14 Noroeste 0 -- -- 79
2018-04-26 00:00:00 13.7 0 Calma 12 Noroeste 0 -- -- 80
2018-04-25 23:00:00 14 4 Noroeste 14 Noroeste 0 -- -- 78
2018-04-25 22:00:00 14.5 3 Oeste 13 Noroeste 0 -- -- 73
2018-04-25 21:00:00 14.8 4 Noroeste 19 Noroeste 0 -- -- 72
2018-04-25 20:00:00 14.3 0 Calma 13 Nordeste 0 -- -- 87
2018-04-25 19:00:00 14.7 4 Noroeste 16 Noroeste 0 -- -- 80
2018-04-25 18:00:00 15.8 2 Noroeste 17 Norte 0 -- -- 65
2018-04-25 17:00:00 14.8 8 Noroeste 15 Noroeste 0 -- -- 75
2018-04-25 16:00:00 15.1 3 Norte 20 Noroeste 0 -- -- 70
2018-04-25 15:00:00 14 4 Noroeste 13 Noroeste 0 -- -- 80
2018-04-25 14:00:00 13.7 3 Noroeste 19 Noroeste 0 -- -- 78
2018-04-25 13:00:00 12.9 8 Noroeste 12 Noroeste 0 -- -- 84
2018-04-25 12:00:00 14.2 3 Norte 11 Norte 0 -- -- 89
2018-04-25 11:00:00 14.1 4 Noroeste 13 Noroeste 0 -- -- 88
2018-04-25 10:00:00 12.8 4 Noroeste 10 Noroeste 0 -- -- 91
2018-04-25 09:00:00 12.8 4 Noroeste 20 Noroeste 0 -- -- 89
2018-04-25 08:00:00 13.3 3 Noroeste 15 Oeste 0 -- -- 83
2018-04-25 07:00:00 13.3 2 Norte 12 Norte 0 -- -- 73
2018-04-25 06:00:00 15.8 4 Norte 16 Norte 0 -- -- 54
2018-04-25 05:00:00 15.7 3 Noroeste 15 Norte 0 -- -- 53
2018-04-25 04:00:00 15.2 3 Noroeste 12 Noroeste 0 -- -- 54
2018-04-25 03:00:00 15.5 0 Calma 13 Noroeste 0 -- -- 53
2018-04-25 02:00:00 16.5 9 Norte 19 Este 0 -- -- 52
2018-04-25 01:00:00 16.3 11 Este 32 Nordeste 0 -- -- 51
2018-04-25 00:00:00 16.5 4 Nordeste 11 Este 0 -- -- 58
2018-04-24 23:00:00 17.1 3 Noroeste 12 Noroeste 0 -- -- 56
2018-04-24 22:00:00 17.8 0 Calma 19 Nordeste 0 -- -- 53
2018-04-24 21:00:00 18.5 6 Nordeste 10 Nordeste 0 -- -- 49
2018-04-24 20:00:00 20.6 3 Nordeste 21 Norte 0 -- -- 39
2018-04-24 19:00:00 21.7 10 Nordeste 37 Nordeste 0 -- -- 36
2018-04-24 18:00:00 22.5 17 Nordeste 41 Nordeste 0 -- -- 34
2018-04-24 17:00:00 23.8 17 Nordeste 40 Nordeste 0 -- -- 32
2018-04-24 16:00:00 23.7 15 Nordeste 40 Este 0 -- -- 33
2018-04-24 15:00:00 23.9 17 Nordeste 39 Nordeste 0 -- -- 34
2018-04-24 14:00:00 23.4 15 Nordeste 31 Norte 0 -- -- 32
2018-04-24 13:00:00 22 11 Nordeste 28 Noroeste 0 -- -- 33
2018-04-24 12:00:00 21.5 11 Nordeste 29 Nordeste 0 -- -- 33
2018-04-24 11:00:00 20 11 Nordeste 30 Nordeste 0 -- -- 34
2018-04-24 10:00:00 19 4 Nordeste 10 Nordeste 0 -- -- 42
2018-04-24 09:00:00 15.4 2 Norte 10 Oeste 0 -- -- 58
2018-04-24 08:00:00 12.7 6 Noroeste 13 Noroeste 0 -- -- 59
2018-04-24 07:00:00 13.8 6 Noroeste 11 Noroeste 0 -- -- 50
2018-04-24 06:00:00 15 0 Calma 14 Noroeste 0 -- -- 45
2018-04-24 05:00:00 16.2 6 Noroeste 22 Norte 0 -- -- 46
2018-04-24 04:00:00 15.9 6 Noroeste 17 Oeste 0 -- -- 51
2018-04-24 03:00:00 16.2 4 Noroeste 20 Noroeste 0 -- -- 54
2018-04-24 02:00:00 16.1 6 Noroeste 24 Noroeste 0 -- -- 58
2018-04-24 01:00:00 16.3 6 Noroeste 42 Noroeste 0 -- -- 58
2018-04-24 00:00:00 14.6 3 Noroeste 36 Nordeste 0 -- -- 72